Lamar, Pennsylvania
Current Conditions -  °F | °C
As of 1:53 PM on Monday 20 Oct 2014 (Local Time) from KUNV Reporting Station
Overcast Overcast  
Wind Chill: 55°   Ceiling: 9000
Heat Index: 55°   Visibility: 10mi
Dew Point: 39°   Wind: 9mph
Humidity: 54%   Direction: 190°S
Pressure: 29.93"   Gusts: NA
Location:  41.02°N, 77.53°W
Report Text: KUNV 201753Z 19008KT 10SM BKN090 OVC110 13/04 A2993
Loading
Personal Weather Stations






























Interactive Weather Map
Tropical Storm Tracking
New forecast layout! Learn more

10-Day Weather Forecast

Advertisements
Track Severe Weather on mobile